Time;durP1;ratioP1;P1;durP2;ratioP2;P2;SDS_P1;SDS_P2;PMS_P1;PMS_P2;Temp;Humidity;BMP_temperature;BMP_pressure;BME280_temperature;BME280_humidity;BME280_pressure;Samples;Min_cycle;Max_cycle;Signal;HPM_P1;HPM_P2
2022/09/25 00:00:35;;;;;;;;;;;;;;;26.61;30.25;101167.47;5016743;28;1195;-38
2022/09/25 00:03:00;;;;;;;;;;;;;;;26.61;30.49;101168.28;5016273;28;1910;-39
2022/09/25 00:05:25;;;;;;;;;;;;;;;26.63;30.56;101168.13;5017028;28;1100;-38
2022/09/25 00:07:51;;;;;;;;;;;;;;;26.52;30.66;101182.81;5016700;28;1167;-38
2022/09/25 00:10:17;;;;;;;;;;;;;;;26.56;30.33;101169.81;5016800;28;1214;-38
2022/09/25 00:12:43;;;;;;;;;;;;;;;26.61;30.32;101165.59;5016595;28;1183;-38
2022/09/25 00:15:08;;;;;;;;;;;;;;;26.62;30.38;101163.75;5016077;28;1250;-38
2022/09/25 00:17:33;;;;;;;;;;;;;;;26.62;30.35;101156.50;5017042;28;1151;-38
2022/09/25 00:19:59;;;;;;;;;;;;;;;26.57;30.54;101142.69;5016514;28;1238;-38
2022/09/25 00:22:25;;;;;;;;;;;;;;;26.60;30.62;101144.19;5015726;28;1902;-38
2022/09/25 00:24:50;;;;;;;;;;;;;;;26.68;30.35;101143.31;5016245;28;1159;-38
2022/09/25 00:27:15;;;;;;;;;;;;;;;26.56;30.54;101148.25;5016301;28;1191;-38
2022/09/25 00:29:41;;;;;;;;;;;;;;;26.51;30.50;101149.56;5016105;28;1214;-38
2022/09/25 00:32:06;;;;;;;;;;;;;;;26.57;30.56;101142.69;5016326;28;1143;-38
2022/09/25 00:34:32;;;;;;;;;;;;;;;26.43;30.73;101140.63;5016141;28;1183;-38
2022/09/25 00:36:57;;;;;;;;;;;;;;;26.51;30.39;101146.88;5016229;28;1191;-38
2022/09/25 00:39:22;;;;;;;;;;;;;;;26.50;30.81;101147.06;5016301;28;1152;-38
2022/09/25 00:41:48;;;;;;;;;;;;;;;26.51;30.81;101136.09;5016356;28;1972;-38
2022/09/25 00:44:32;;;;;;;;;;;;;;;26.45;30.74;101139.47;5015744;28;1167;-38
2022/09/25 00:46:57;;;;;;;;;;;;;;;26.55;30.86;101133.06;5016355;28;1131;-38
2022/09/25 00:49:23;;;;;;;;;;;;;;;26.48;30.99;101122.09;5016329;28;1222;-38
2022/09/25 00:51:54;;;;;;;;;;;;;;;26.48;30.75;101119.41;5016062;28;1140;-38
2022/09/25 00:54:23;;;;;;;;;;;;;;;26.59;30.66;101118.22;5022363;28;1223;-38
2022/09/25 00:56:49;;;;;;;;;;;;;;;26.49;30.51;101115.69;5022774;28;1123;-38
2022/09/25 00:59:21;;;;;;;;;;;;;;;26.39;30.57;101114.00;5021073;28;1179;-38
2022/09/25 01:01:47;;;;;;;;;;;;;;;26.39;30.78;101111.31;5014324;28;1894;-38
2022/09/25 01:04:12;;;;;;;;;;;;;;;26.41;30.65;101114.69;5013996;28;1144;-38
2022/09/25 01:06:37;;;;;;;;;;;;;;;26.52;30.80;101105.41;5021628;28;1152;-38
2022/09/25 01:09:03;;;;;;;;;;;;;;;26.45;30.59;101112.50;5010796;28;1156;-37
2022/09/25 01:11:29;;;;;;;;;;;;;;;26.43;30.66;101106.41;5019480;28;1080;-38
2022/09/25 01:13:55;;;;;;;;;;;;;;;26.48;30.61;101112.16;5021773;28;1171;-38
2022/09/25 01:16:20;;;;;;;;;;;;;;;26.47;30.79;101115.03;5022083;28;1144;-38
2022/09/25 01:19:01;;;;;;;;;;;;;;;26.35;31.23;101109.13;5022526;28;1072;-38
2022/09/25 01:21:32;;;;;;;;;;;;;;;26.30;31.01;101106.91;5021926;28;1894;-38
2022/09/25 01:23:58;;;;;;;;;;;;;;;26.46;30.77;101106.06;5010675;28;1168;-38
2022/09/25 01:26:41;;;;;;;;;;;;;;;26.33;30.96;101103.03;5021934;28;1186;-38
2022/09/25 01:29:16;;;;;;;;;;;;;;;27.62;29.56;101098.66;5014225;28;1084;-38
2022/09/25 01:31:41;;;;;;;;;;;;;;;27.72;29.02;101090.34;5022382;28;1128;-38
2022/09/25 01:34:14;;;;;;;;;;;;;;;27.34;29.12;101093.72;5022480;28;1170;-38
2022/09/25 01:37:05;;;;;;;;;;;;;;;27.04;29.75;101096.22;5006599;28;1180;-38
2022/09/25 01:39:31;;;;;;;;;;;;;;;26.91;30.14;101094.84;5018270;28;1177;-38
2022/09/25 01:41:57;;;;;;;;;;;;;;;26.85;30.33;101096.41;5006729;28;1957;-38
2022/09/25 01:44:29;;;;;;;;;;;;;;;26.70;30.20;101096.28;5022134;28;1167;-38
2022/09/25 01:46:55;;;;;;;;;;;;;;;26.63;30.72;101100.66;5007247;28;1164;-38
2022/09/25 01:49:24;;;;;;;;;;;;;;;26.60;30.85;101104.56;5016604;28;1152;-38
2022/09/25 01:51:50;;;;;;;;;;;;;;;26.67;31.16;101103.88;5021921;28;1155;-38
2022/09/25 01:54:23;;;;;;;;;;;;;;;27.75;29.46;101101.66;5021104;28;1136;-38
2022/09/25 01:56:58;;;;;;;;;;;;;;;28.38;28.33;101094.41;5021784;28;1112;-38
2022/09/25 01:59:43;;;;;;;;;;;;;;;28.87;27.74;101094.09;5022020;28;1128;-38
2022/09/25 02:02:09;;;;;;;;;;;;;;;29.25;27.19;101087.75;5020077;28;1898;-38
2022/09/25 02:04:37;;;;;;;;;;;;;;;29.40;26.91;101083.13;5018330;28;1179;-39
2022/09/25 02:07:03;;;;;;;;;;;;;;;29.64;26.58;101080.31;5009785;28;1128;-39
2022/09/25 02:09:31;;;;;;;;;;;;;;;29.89;26.24;101088.06;5013860;28;1211;-38
2022/09/25 02:11:57;;;;;;;;;;;;;;;30.10;26.04;101089.91;5018060;28;1195;-39
2022/09/25 02:14:26;;;;;;;;;;;;;;;30.24;25.71;101096.34;5005552;28;1117;-38
2022/09/25 02:16:52;;;;;;;;;;;;;;;30.23;25.93;101097.34;5016090;28;1165;-39
2022/09/25 02:22:21;;;;;;;;;;;;;;;29.95;25.92;101089.97;5018085;28;1970;-38
2022/09/25 02:25:10;;;;;;;;;;;;;;;29.77;26.21;101085.03;5018790;28;1258;-38
2022/09/25 02:27:36;;;;;;;;;;;;;;;29.48;26.55;101084.88;5007670;28;1258;-38
2022/09/25 02:30:01;;;;;;;;;;;;;;;29.36;26.71;101087.28;5018081;28;1014;-37
2022/09/25 02:32:30;;;;;;;;;;;;;;;29.18;27.16;101088.50;5018913;28;1147;-38
2022/09/25 02:34:55;;;;;;;;;;;;;;;28.97;27.51;101089.28;5018571;28;1246;-38
2022/09/25 02:37:21;;;;;;;;;;;;;;;28.88;27.61;101090.38;5017196;28;1217;-37
2022/09/25 02:39:48;;;;;;;;;;;;;;;28.78;27.41;101090.66;5018250;28;1135;-37
2022/09/25 02:42:26;;;;;;;;;;;;;;;28.62;27.78;101091.66;5017881;28;1985;-37
2022/09/25 02:45:10;;;;;;;;;;;;;;;28.46;28.18;101093.53;5005826;28;1172;-38
2022/09/25 02:47:38;;;;;;;;;;;;;;;28.32;28.43;101095.97;5004223;28;1179;-38
2022/09/25 02:50:15;;;;;;;;;;;;;;;28.31;28.55;101094.28;5017918;28;1123;-38
2022/09/25 02:52:45;;;;;;;;;;;;;;;28.51;28.78;101099.19;5017921;28;1245;-38
2022/09/25 02:55:11;;;;;;;;;;;;;;;28.80;28.14;101108.38;5008604;28;1211;-38
2022/09/25 02:57:39;;;;;;;;;;;;;;;29.40;27.13;101104.81;5011278;28;1125;-38
2022/09/25 03:00:06;;;;;;;;;;;;;;;29.00;27.39;101117.84;5009964;28;1222;-38
2022/09/25 03:02:31;;;;;;;;;;;;;;;28.77;28.00;101116.03;5009849;28;1957;-38
2022/09/25 03:04:56;;;;;;;;;;;;;;;28.75;28.30;101115.38;5002475;28;1179;-37
2022/09/25 03:07:22;;;;;;;;;;;;;;;28.95;28.05;101118.38;5016624;28;1141;-37
2022/09/25 03:09:47;;;;;;;;;;;;;;;29.58;27.05;101108.97;5017571;28;1171;-38
2022/09/25 03:12:13;;;;;;;;;;;;;;;29.15;27.39;101109.72;5007504;28;1188;-38
2022/09/25 03:14:39;;;;;;;;;;;;;;;28.47;26.85;101101.44;5012010;28;1211;-39
2022/09/25 03:17:04;;;;;;;;;;;;;;;27.31;24.43;101100.31;5017485;28;1218;-40
2022/09/25 03:19:29;;;;;;;;;;;;;;;26.67;25.15;101099.31;5015921;28;1113;-40
2022/09/25 03:21:55;;;;;;;;;;;;;;;26.72;25.93;101110.44;5017283;28;1898;-40
2022/09/25 03:24:20;;;;;;;;;;;;;;;25.37;27.13;101107.72;5017739;28;1234;-41
2022/09/25 03:26:46;;;;;;;;;;;;;;;24.22;28.89;101101.44;5017099;28;1108;-41
2022/09/25 03:29:12;;;;;;;;;;;;;;;23.55;29.44;101103.44;5016688;28;1132;-41
2022/09/25 03:31:37;;;;;;;;;;;;;;;23.22;29.18;101097.63;5017279;28;1218;-41
2022/09/25 03:34:02;;;;;;;;;;;;;;;23.09;28.67;101093.44;5017374;28;1185;-40
2022/09/25 03:36:28;;;;;;;;;;;;;;;23.48;27.78;101095.13;5017164;28;1221;-41
2022/09/25 03:38:57;;;;;;;;;;;;;;;23.27;28.15;101090.00;5017516;28;1226;-41
2022/09/25 03:41:23;;;;;;;;;;;;;;;23.51;27.71;101088.59;5016498;28;1915;-41
2022/09/25 03:43:50;;;;;;;;;;;;;;;23.17;28.03;101091.88;5017161;28;1124;-44
2022/09/25 03:46:16;;;;;;;;;;;;;;;23.16;28.07;101087.47;5017592;28;1171;-40
2022/09/25 03:48:41;;;;;;;;;;;;;;;23.23;27.66;101083.22;5016924;28;1265;-39
2022/09/25 03:51:06;;;;;;;;;;;;;;;23.21;27.59;101088.72;5016375;28;1143;-40
2022/09/25 03:53:32;;;;;;;;;;;;;;;23.04;28.05;101090.34;5016501;28;860;-41
2022/09/25 03:55:57;;;;;;;;;;;;;;;23.04;27.72;101089.53;5016513;28;1119;-45
2022/09/25 03:58:23;;;;;;;;;;;;;;;23.46;27.38;101090.88;5017378;28;1128;-39
2022/09/25 04:00:48;;;;;;;;;;;;;;;24.12;27.03;101098.81;5016541;28;1410;-39
2022/09/25 04:03:14;;;;;;;;;;;;;;;24.98;26.43;101102.81;5016964;28;1902;-39
2022/09/25 04:05:40;;;;;;;;;;;;;;;25.97;25.33;101112.28;5017169;28;1167;-39
2022/09/25 04:08:05;;;;;;;;;;;;;;;26.62;25.40;101115.19;5016956;28;1206;-39
2022/09/25 04:10:31;;;;;;;;;;;;;;;26.92;25.30;101120.00;5016611;28;1147;-40
2022/09/25 04:12:57;;;;;;;;;;;;;;;27.29;25.80;101128.53;5016506;28;1092;-44
2022/09/25 04:15:22;;;;;;;;;;;;;;;27.70;26.37;101133.78;5016782;28;1131;-45
2022/09/25 04:17:47;;;;;;;;;;;;;;;27.95;26.02;101135.47;5016369;28;1136;-44
2022/09/25 04:20:13;;;;;;;;;;;;;;;28.23;26.17;101129.50;5016634;28;1232;-42
2022/09/25 04:22:38;;;;;;;;;;;;;;;28.49;26.08;101125.63;5007716;28;1898;-42
2022/09/25 04:25:04;;;;;;;;;;;;;;;28.07;25.99;101015.06;5009509;28;1116;-41
2022/09/25 04:27:29;;;;;;;;;;;;;;;28.95;25.89;101124.63;5017264;28;1124;-42
2022/09/25 04:29:54;;;;;;;;;;;;;;;29.06;26.01;101119.81;5015976;28;1365;-42
2022/09/25 04:35:03;;;;;;;;;;;;;;;28.49;27.00;101128.31;5016738;28;1175;-40
2022/09/25 04:37:29;;;;;;;;;;;;;;;27.99;27.83;101132.22;5016509;28;1151;-40
2022/09/25 04:39:54;;;;;;;;;;;;;;;28.76;26.98;101142.25;5016001;28;1253;-39
2022/09/25 04:42:23;;;;;;;;;;;;;;;29.09;26.37;101133.81;5015846;28;1973;-39
2022/09/25 04:44:48;;;;;;;;;;;;;;;29.11;26.68;101133.66;5016884;28;1230;-41
2022/09/25 04:47:14;;;;;;;;;;;;;;;29.05;26.87;101132.50;5016124;28;1218;-39
2022/09/25 04:49:39;;;;;;;;;;;;;;;29.01;26.91;101127.66;5016703;28;1210;-39
2022/09/25 04:52:05;;;;;;;;;;;;;;;28.57;27.56;101133.66;5016309;28;1264;-40
2022/09/25 04:54:30;;;;;;;;;;;;;;;28.09;28.56;101133.84;5015757;28;1159;-40
2022/09/25 04:56:56;;;;;;;;;;;;;;;27.75;29.27;101119.72;5016563;28;1238;-40
2022/09/25 04:59:21;;;;;;;;;;;;;;;27.41;29.80;101135.22;5030358;28;1183;-39
2022/09/25 05:01:47;;;;;;;;;;;;;;;27.24;29.57;101131.75;5015758;28;1971;-39
2022/09/25 05:04:15;;;;;;;;;;;;;;;27.02;29.64;101128.78;5016184;28;1128;-39
2022/09/25 05:06:40;;;;;;;;;;;;;;;27.33;29.67;101133.41;5016336;28;1147;-38
2022/09/25 05:09:05;;;;;;;;;;;;;;;27.47;29.15;101139.09;5016380;28;1175;-38
2022/09/25 05:11:30;;;;;;;;;;;;;;;27.47;29.26;101147.19;5015522;28;1223;-37
2022/09/25 05:13:56;;;;;;;;;;;;;;;27.54;29.23;101140.09;5024976;28;1194;-40
2022/09/25 05:16:22;;;;;;;;;;;;;;;27.57;28.89;101133.47;5021015;28;1147;-39
2022/09/25 05:18:47;;;;;;;;;;;;;;;27.60;28.98;101138.50;5015647;28;1167;-39
2022/09/25 05:21:13;;;;;;;;;;;;;;;27.57;29.29;101136.16;5015821;28;1965;-42
2022/09/25 05:23:38;;;;;;;;;;;;;;;27.61;28.97;101130.22;5002910;28;1179;-40
2022/09/25 05:26:03;;;;;;;;;;;;;;;27.60;29.20;101138.50;5015989;28;1104;-40
2022/09/25 05:28:29;;;;;;;;;;;;;;;27.56;29.15;101138.03;5016100;28;1175;-39
2022/09/25 05:30:54;;;;;;;;;;;;;;;27.51;29.32;101135.84;5015803;28;902;-40
2022/09/25 05:33:19;;;;;;;;;;;;;;;27.50;29.45;101136.03;5000043;28;1153;-38
2022/09/25 05:35:45;;;;;;;;;;;;;;;27.39;29.88;101134.56;5016134;28;1246;-39
2022/09/25 05:38:11;;;;;;;;;;;;;;;27.39;29.86;101123.78;5019736;28;1139;-38
2022/09/25 05:40:38;;;;;;;;;;;;;;;27.28;30.30;101140.38;5019268;28;1151;-40
2022/09/25 05:43:04;;;;;;;;;;;;;;;27.77;29.76;101138.44;5019422;28;1914;-41
2022/09/25 05:45:29;;;;;;;;;;;;;;;28.64;28.36;101135.63;5019643;28;1238;-40
2022/09/25 05:48:04;;;;;;;;;;;;;;;28.87;27.32;101140.13;5018990;28;1151;-39
2022/09/25 05:50:31;;;;;;;;;;;;;;;28.41;27.91;101136.50;5019137;28;1119;-38
2022/09/25 05:52:56;;;;;;;;;;;;;;;28.22;28.20;101136.81;5019386;28;1222;-39
2022/09/25 05:55:22;;;;;;;;;;;;;;;28.14;28.58;101136.00;5019102;28;896;-38
2022/09/25 05:57:47;;;;;;;;;;;;;;;27.69;30.29;101142.06;5019386;28;1203;-38
2022/09/25 06:00:12;;;;;;;;;;;;;;;27.60;30.17;101141.22;5019335;28;1139;-39
2022/09/25 06:02:38;;;;;;;;;;;;;;;27.62;30.22;101141.88;5019021;28;1906;-43
2022/09/25 06:05:03;;;;;;;;;;;;;;;27.49;30.48;101155.97;5004960;28;1113;-45
2022/09/25 06:07:28;;;;;;;;;;;;;;;27.32;31.01;101147.09;5019035;28;859;-45
2022/09/25 06:09:54;;;;;;;;;;;;;;;27.34;30.88;101143.19;5018043;28;1170;-39
2022/09/25 06:12:19;;;;;;;;;;;;;;;27.32;31.02;101147.94;5018602;28;1060;-39
2022/09/25 06:14:44;;;;;;;;;;;;;;;27.29;31.05;101151.00;5018489;28;1233;-39
2022/09/25 06:17:10;;;;;;;;;;;;;;;27.25;30.23;101146.94;5018433;28;1163;-39
2022/09/25 06:19:36;;;;;;;;;;;;;;;27.11;30.44;101145.81;5018987;28;862;-40
2022/09/25 06:22:01;;;;;;;;;;;;;;;27.22;30.44;101150.84;5018555;28;1902;-38
2022/09/25 06:24:26;;;;;;;;;;;;;;;27.33;30.68;101143.34;5018233;28;1314;-39
2022/09/25 06:26:52;;;;;;;;;;;;;;;27.42;30.53;101147.72;5018739;28;1096;-38
2022/09/25 06:29:17;;;;;;;;;;;;;;;27.53;30.72;101143.78;5018426;28;1136;-40
2022/09/25 06:31:43;;;;;;;;;;;;;;;27.81;30.37;101142.50;5017906;28;994;-40
2022/09/25 06:34:09;;;;;;;;;;;;;;;28.20;29.46;101136.13;5018761;28;1187;-40
2022/09/25 06:36:35;;;;;;;;;;;;;;;27.72;30.31;101134.44;5018403;28;1159;-42
2022/09/25 06:39:00;;;;;;;;;;;;;;;27.63;30.20;101135.44;5018021;28;1155;-41
2022/09/25 06:41:25;;;;;;;;;;;;;;;27.65;30.26;101143.38;5018641;28;1906;-40
2022/09/25 06:43:51;;;;;;;;;;;;;;;27.77;29.93;101142.00;5018210;28;969;-41
2022/09/25 06:46:19;;;;;;;;;;;;;;;27.77;30.30;101138.44;5017833;28;1183;-40
2022/09/25 06:48:52;;;;;;;;;;;;;;;27.60;30.31;101142.06;5017531;28;1147;-40
2022/09/25 06:51:18;;;;;;;;;;;;;;;27.67;30.39;101142.19;5018179;28;1187;-38
2022/09/25 06:53:43;;;;;;;;;;;;;;;27.98;29.94;101137.81;5007355;28;1052;-40
2022/09/25 06:56:08;;;;;;;;;;;;;;;27.96;29.52;101139.88;5014234;28;1116;-39
2022/09/25 06:58:34;;;;;;;;;;;;;;;28.04;29.54;101144.38;5017929;28;1422;-39
2022/09/25 07:01:00;;;;;;;;;;;;;;;27.94;29.79;101148.16;5017869;28;1195;-39
2022/09/25 07:03:43;;;;;;;;;;;;;;;27.39;31.30;101151.59;5018092;28;1958;-39
2022/09/25 07:06:09;;;;;;;;;;;;;;;27.17;31.13;101150.53;5017305;28;1218;-39
2022/09/25 07:08:35;;;;;;;;;;;;;;;27.06;31.63;101140.91;5017288;28;867;-39
2022/09/25 07:11:03;;;;;;;;;;;;;;;27.04;31.17;101137.56;5018157;28;1143;-39
2022/09/25 07:13:29;;;;;;;;;;;;;;;27.58;29.85;101136.00;5018010;28;1100;-39
2022/09/25 07:15:58;;;;;;;;;;;;;;;28.03;29.43;101138.13;5017188;28;1128;-38
2022/09/25 07:18:23;;;;;;;;;;;;;;;28.28;29.26;101148.75;5017635;28;1211;-39
2022/09/25 07:20:49;;;;;;;;;;;;;;;28.40;29.20;101142.94;5017939;28;1429;-39
2022/09/25 07:23:15;;;;;;;;;;;;;;;28.45;28.94;101143.22;5017216;28;1957;-38
2022/09/25 07:25:41;;;;;;;;;;;;;;;28.58;28.90;101142.59;5017645;28;1186;-38
2022/09/25 07:28:06;;;;;;;;;;;;;;;28.59;28.73;101137.00;5017107;28;1241;-39
2022/09/25 07:30:32;;;;;;;;;;;;;;;28.69;28.69;101141.34;5016738;28;1196;-40
2022/09/25 07:32:57;;;;;;;;;;;;;;;28.70;28.77;101135.72;5017441;28;1187;-39
2022/09/25 07:35:22;;;;;;;;;;;;;;;28.70;28.70;101133.03;5017177;28;1151;-38
2022/09/25 07:37:48;;;;;;;;;;;;;;;28.75;28.88;101131.63;5016843;28;1119;-37
2022/09/25 07:40:13;;;;;;;;;;;;;;;28.76;28.86;101134.13;5017334;28;1183;-37
2022/09/25 07:42:39;;;;;;;;;;;;;;;28.75;28.87;101132.47;5017049;28;1969;-38
2022/09/25 07:45:04;;;;;;;;;;;;;;;28.80;28.50;101135.47;5017161;28;1072;-38
2022/09/25 07:47:30;;;;;;;;;;;;;;;28.89;28.49;101138.94;5016555;28;1120;-37
2022/09/25 07:49:55;;;;;;;;;;;;;;;28.90;28.68;101137.91;5017064;28;1214;-37
2022/09/25 07:52:20;;;;;;;;;;;;;;;28.97;28.50;101138.03;5016881;28;1245;-37
2022/09/25 07:54:45;;;;;;;;;;;;;;;29.04;28.33;101136.25;5016523;28;1179;-39
2022/09/25 07:57:12;;;;;;;;;;;;;;;29.06;28.60;101139.59;5016954;28;1152;-39
2022/09/25 07:59:37;;;;;;;;;;;;;;;28.96;27.99;101137.13;5016297;28;1242;-38
2022/09/25 08:02:03;;;;;;;;;;;;;;;28.13;29.67;101140.56;5017391;28;1914;-38
2022/09/25 08:04:29;;;;;;;;;;;;;;;27.89;30.22;101134.34;5016623;28;1147;-38
2022/09/25 08:06:54;;;;;;;;;;;;;;;27.73;30.01;101133.41;5016145;28;1222;-38
2022/09/25 08:09:19;;;;;;;;;;;;;;;28.37;29.15;101130.63;5016460;28;1179;-38
2022/09/25 08:11:45;;;;;;;;;;;;;;;28.63;28.86;101120.41;5016339;28;1218;-38
2022/09/25 08:14:12;;;;;;;;;;;;;;;28.75;28.44;101118.06;5016858;28;1128;-38
2022/09/25 08:16:38;;;;;;;;;;;;;;;28.77;28.66;101116.03;5016518;28;1124;-38
2022/09/25 08:19:03;;;;;;;;;;;;;;;28.73;28.77;101116.41;5016636;28;1155;-38
2022/09/25 08:21:28;;;;;;;;;;;;;;;28.80;28.66;101126.50;5016492;28;1968;-38
2022/09/25 08:23:55;;;;;;;;;;;;;;;28.86;28.79;101123.06;5016404;28;1149;-38
2022/09/25 08:26:20;;;;;;;;;;;;;;;28.87;28.65;101116.59;5016789;28;1127;-39
2022/09/25 08:28:46;;;;;;;;;;;;;;;28.10;30.15;101120.16;5016211;28;1235;-39
2022/09/25 08:31:13;;;;;;;;;;;;;;;27.82;30.48;101114.44;5016023;28;1223;-38
2022/09/25 08:33:39;;;;;;;;;;;;;;;27.67;30.92;101106.22;5016394;28;1112;-39
2022/09/25 08:36:05;;;;;;;;;;;;;;;27.73;30.88;101106.38;5016731;28;1210;-38
2022/09/25 08:38:32;;;;;;;;;;;;;;;27.74;30.69;101099.13;5016153;28;1171;-38
2022/09/25 08:41:04;;;;;;;;;;;;;;;27.69;30.76;101102.38;5016773;28;1194;-40
2022/09/25 08:43:30;;;;;;;;;;;;;;;27.78;30.97;101107.72;5004803;28;1910;-38
2022/09/25 08:49:06;;;;;;;;;;;;;;;27.76;30.79;101097.06;5001413;28;1203;-36
2022/09/25 08:51:33;;;;;;;;;;;;;;;27.80;30.69;101098.41;4996021;28;1229;-39
2022/09/25 08:53:58;;;;;;;;;;;;;;;27.92;30.27;101095.28;5021814;28;1215;-38
2022/09/25 08:56:24;;;;;;;;;;;;;;;27.89;30.65;101093.78;5017521;28;1142;-39
2022/09/25 08:58:54;;;;;;;;;;;;;;;27.67;30.33;101090.84;5016045;28;1214;-38
2022/09/25 09:01:21;;;;;;;;;;;;;;;28.48;29.83;101091.44;5000932;28;1906;-39
2022/09/25 09:03:51;;;;;;;;;;;;;;;28.83;29.03;101091.75;5006283;28;1235;-39
2022/09/25 09:06:17;;;;;;;;;;;;;;;29.11;28.52;101079.47;5012520;28;1164;-38
2022/09/25 09:08:43;;;;;;;;;;;;;;;29.26;28.42;101082.13;5016564;28;932;-37
2022/09/25 09:11:16;;;;;;;;;;;;;;;29.36;28.14;101090.00;5001825;28;1159;-38
2022/09/25 09:13:53;;;;;;;;;;;;;;;28.70;28.86;101078.88;5012006;28;1238;-38
2022/09/25 09:16:22;;;;;;;;;;;;;;;28.18;29.69;101067.00;5015150;28;1128;-38
2022/09/25 09:18:47;;;;;;;;;;;;;;;28.14;29.74;101069.25;5020189;28;1497;-38
2022/09/25 09:21:21;;;;;;;;;;;;;;;28.17;29.82;101068.03;5005598;28;881;-38
2022/09/25 09:24:05;;;;;;;;;;;;;;;28.11;29.80;101065.03;5014191;28;1002;-38
2022/09/25 09:26:36;;;;;;;;;;;;;;;28.04;29.84;101071.34;5014652;28;1171;-38
2022/09/25 09:29:09;;;;;;;;;;;;;;;28.17;29.91;101073.44;5019516;28;1290;-38
2022/09/25 09:31:34;;;;;;;;;;;;;;;28.23;29.46;101064.59;5005839;28;1191;-38
2022/09/25 09:33:59;;;;;;;;;;;;;;;28.46;29.89;101061.88;5020434;28;1202;-38
2022/09/25 09:36:40;;;;;;;;;;;;;;;28.60;29.60;101062.06;5019338;28;1136;-38
2022/09/25 09:39:10;;;;;;;;;;;;;;;28.39;29.42;101050.13;5006446;28;1127;-38
2022/09/25 09:41:49;;;;;;;;;;;;;;;28.46;29.82;101045.63;5005904;28;1960;-38
2022/09/25 09:44:26;;;;;;;;;;;;;;;28.53;29.66;101040.31;5017877;28;1195;-37
2022/09/25 09:47:03;;;;;;;;;;;;;;;28.65;28.95;101037.16;5019836;28;1199;-38
2022/09/25 09:49:36;;;;;;;;;;;;;;;28.78;28.87;101044.63;5019545;28;1159;-38
2022/09/25 09:52:16;;;;;;;;;;;;;;;28.82;28.92;101040.50;5018909;28;1128;-38
2022/09/25 09:54:53;;;;;;;;;;;;;;;28.79;29.22;101038.19;5019339;28;1242;-38
2022/09/25 09:57:23;;;;;;;;;;;;;;;28.85;28.90;101035.56;5019198;28;894;-38
2022/09/25 09:59:49;;;;;;;;;;;;;;;28.92;28.86;101029.38;5018849;28;1250;-38
2022/09/25 10:02:26;;;;;;;;;;;;;;;28.98;28.60;101031.38;5007257;28;1898;-38
2022/09/25 10:04:52;;;;;;;;;;;;;;;28.97;29.00;101032.41;5017853;28;1192;-38
2022/09/25 10:07:17;;;;;;;;;;;;;;;28.93;29.04;101025.63;5018054;28;1148;-38
2022/09/25 10:09:43;;;;;;;;;;;;;;;29.17;29.13;101029.09;5019247;28;1021;-38
2022/09/25 10:12:11;;;;;;;;;;;;;;;29.03;29.37;101018.09;5019128;28;1116;-38
2022/09/25 10:14:37;;;;;;;;;;;;;;;28.98;28.96;101019.72;5019236;28;1203;-39
2022/09/25 10:17:03;;;;;;;;;;;;;;;28.86;29.10;101006.63;5019636;28;1194;-38
2022/09/25 10:19:28;;;;;;;;;;;;;;;28.76;29.55;101012.31;5019272;28;1441;-38
2022/09/25 10:22:14;;;;;;;;;;;;;;;28.65;29.48;101001.97;5017436;28;1953;-38
2022/09/25 10:24:53;;;;;;;;;;;;;;;28.54;29.72;101001.44;5018005;28;1251;-38
2022/09/25 10:27:25;;;;;;;;;;;;;;;28.57;30.00;100992.09;5018766;28;1186;-38
2022/09/25 10:30:19;;;;;;;;;;;;;;;28.68;30.29;100993.47;5018782;28;1116;-39
2022/09/25 10:32:54;;;;;;;;;;;;;;;28.73;30.57;100991.03;5001245;28;1289;-39
2022/09/25 10:35:20;;;;;;;;;;;;;;;28.60;31.05;100989.84;5017427;28;1148;-39
2022/09/25 10:37:52;;;;;;;;;;;;;;;28.56;30.77;100999.34;5019030;28;1467;-42
2022/09/25 10:40:36;;;;;;;;;;;;;;;28.56;30.71;100998.53;5018801;28;1218;-39
2022/09/25 10:43:05;;;;;;;;;;;;;;;28.52;29.91;100983.69;5017976;28;1906;-41
2022/09/25 10:45:32;;;;;;;;;;;;;;;28.93;30.37;100980.47;5018219;28;1136;-41
2022/09/25 10:50:41;;;;;;;;;;;;;;;28.44;27.11;100974.66;5018134;28;1124;-42
2022/09/25 10:53:25;;;;;;;;;;;;;;;28.82;29.05;100964.69;5017763;28;1120;-41
2022/09/25 10:55:52;;;;;;;;;;;;;;;28.64;28.02;100978.63;5018816;28;1128;-40
2022/09/25 10:58:23;;;;;;;;;;;;;;;28.99;28.05;100961.81;5017745;28;977;-40
2022/09/25 11:00:48;;;;;;;;;;;;;;;28.33;26.39;100962.41;5018496;28;1104;-40
2022/09/25 11:03:20;;;;;;;;;;;;;;;28.52;26.96;100957.47;5017852;28;1966;-39
2022/09/25 11:05:48;;;;;;;;;;;;;;;28.46;25.48;100950.91;5018477;28;1143;-41
2022/09/25 11:08:15;;;;;;;;;;;;;;;28.27;25.39;100951.47;5018428;28;1167;-41
2022/09/25 11:10:55;;;;;;;;;;;;;;;28.28;25.41;100943.16;5017119;28;1211;-43
2022/09/25 11:13:25;;;;;;;;;;;;;;;28.73;26.09;100945.00;4998494;28;1180;-41
2022/09/25 11:15:52;;;;;;;;;;;;;;;28.43;25.19;100943.19;5009213;28;1208;-43
2022/09/25 11:18:36;;;;;;;;;;;;;;;28.18;24.46;100948.00;5018474;28;1214;-39
2022/09/25 11:21:02;;;;;;;;;;;;;;;28.29;23.69;100966.50;5017533;28;1230;-40
2022/09/25 11:23:40;;;;;;;;;;;;;;;28.39;23.95;100941.91;5018111;28;1960;-42
2022/09/25 11:26:07;;;;;;;;;;;;;;;28.44;24.03;100939.47;5005728;28;1124;-42
2022/09/25 11:28:36;;;;;;;;;;;;;;;28.49;23.80;100944.31;5013924;28;1057;-41
2022/09/25 11:31:04;;;;;;;;;;;;;;;28.51;23.76;100953.06;5017728;28;1504;-41
2022/09/25 11:33:32;;;;;;;;;;;;;;;28.50;23.59;100935.16;5017296;28;1139;-42
2022/09/25 11:36:17;;;;;;;;;;;;;;;28.54;23.45;100939.19;5017079;28;1418;-40
2022/09/25 11:41:37;;;;;;;;;;;;;;;28.61;23.49;100941.97;5017166;28;1969;-42
2022/09/25 11:44:05;;;;;;;;;;;;;;;29.04;23.50;100930.44;5017311;28;1132;-40
2022/09/25 11:46:49;;;;;;;;;;;;;;;29.18;22.74;100930.53;5016766;28;918;-40
2022/09/25 11:49:29;;;;;;;;;;;;;;;29.34;23.39;100924.84;5017150;28;1147;-40
2022/09/25 11:52:15;;;;;;;;;;;;;;;28.71;22.63;100920.03;5017622;28;1175;-41
2022/09/25 11:54:43;;;;;;;;;;;;;;;29.09;22.52;100917.13;5016780;28;1187;-44
2022/09/25 11:57:09;;;;;;;;;;;;;;;29.06;22.88;100914.78;5016797;28;1131;-43
2022/09/25 11:59:37;;;;;;;;;;;;;;;29.03;22.76;100920.59;5017281;28;1155;-40
2022/09/25 12:02:21;;;;;;;;;;;;;;;28.80;23.05;100909.91;5017120;28;1906;-40
2022/09/25 12:05:05;;;;;;;;;;;;;;;29.05;22.91;100915.84;5016576;28;1203;-41
2022/09/25 12:07:31;;;;;;;;;;;;;;;29.09;23.28;100910.88;5017342;28;1202;-41
2022/09/25 12:10:02;;;;;;;;;;;;;;;28.87;23.83;100918.94;5016464;28;1191;-41
2022/09/25 12:12:38;;;;;;;;;;;;;;;28.94;23.80;100909.03;5016721;28;1152;-40
2022/09/25 12:15:13;;;;;;;;;;;;;;;28.85;24.02;100912.88;5016766;28;1211;-40
2022/09/25 12:17:57;;;;;;;;;;;;;;;28.99;24.06;100911.19;5017115;28;1151;-41
2022/09/25 12:20:29;;;;;;;;;;;;;;;28.77;23.98;100904.88;5003454;28;1493;-41
2022/09/25 12:23:19;;;;;;;;;;;;;;;29.06;23.80;100895.84;5016751;28;1902;-41
2022/09/25 12:25:54;;;;;;;;;;;;;;;28.79;24.17;100898.25;5004093;28;1163;-42
2022/09/25 12:28:19;;;;;;;;;;;;;;;28.79;24.06;100908.22;5016777;28;1186;-41
2022/09/25 12:30:55;;;;;;;;;;;;;;;28.75;23.82;100904.22;5016744;28;1210;-43
2022/09/25 12:33:44;;;;;;;;;;;;;;;28.38;23.57;100909.63;5016259;28;1108;-40
2022/09/25 12:36:21;;;;;;;;;;;;;;;28.43;24.06;100899.88;4979400;28;1093;-41
2022/09/25 12:38:54;;;;;;;;;;;;;;;28.57;24.22;100902.78;5013805;28;1370;-41
2022/09/25 12:41:28;;;;;;;;;;;;;;;28.22;25.26;100898.78;5015176;28;1117;-40
2022/09/25 12:44:00;;;;;;;;;;;;;;;28.17;25.20;100892.22;5020047;28;1139;-41
2022/09/25 12:46:48;;;;;;;;;;;;;;;27.94;25.19;100898.56;5021138;28;863;-39
2022/09/25 12:49:28;;;;;;;;;;;;;;;28.05;25.41;100890.00;4994250;28;1296;-41
2022/09/25 12:51:54;;;;;;;;;;;;;;;28.00;26.24;100889.72;5006266;28;1168;-39
2022/09/25 12:54:46;;;;;;;;;;;;;;;28.13;26.21;100878.25;5011977;28;1436;-39
2022/09/25 12:57:22;;;;;;;;;;;;;;;28.00;26.69;100884.31;5011800;28;1414;-39
2022/09/25 12:59:49;;;;;;;;;;;;;;;27.89;27.22;100882.06;5015232;28;1144;-39
2022/09/25 13:02:17;;;;;;;;;;;;;;;27.91;27.47;100880.84;5016679;28;1875;-40
2022/09/25 13:04:43;;;;;;;;;;;;;;;27.97;27.38;100876.56;5016068;28;1175;-39
2022/09/25 13:07:34;;;;;;;;;;;;;;;28.07;27.09;100871.72;5016318;28;1222;-40
2022/09/25 13:10:00;;;;;;;;;;;;;;;27.97;27.73;100872.00;4981139;28;1263;-40